sensor_id;sensor_type;location;lat;lon;timestamp;temperature;humidity
22173;DHT22;11252;50.596;17.648;2023-03-31T00:00:53;9.00;92.20
22173;DHT22;11252;50.596;17.648;2023-03-31T00:03:24;9.10;92.20
22173;DHT22;11252;50.596;17.648;2023-03-31T00:05:59;9.10;92.20
22173;DHT22;11252;50.596;17.648;2023-03-31T00:08:29;9.00;92.20
22173;DHT22;11252;50.596;17.648;2023-03-31T00:11:04;9.00;92.20
22173;DHT22;11252;50.596;17.648;2023-03-31T00:13:34;9.00;92.20
22173;DHT22;11252;50.596;17.648;2023-03-31T00:16:05;9.00;92.20
22173;DHT22;11252;50.596;17.648;2023-03-31T00:18:35;9.00;92.20
22173;DHT22;11252;50.596;17.648;2023-03-31T00:21:08;9.00;92.20
22173;DHT22;11252;50.596;17.648;2023-03-31T00:23:40;8.90;92.20
22173;DHT22;11252;50.596;17.648;2023-03-31T00:26:08;8.90;92.20
22173;DHT22;11252;50.596;17.648;2023-03-31T00:28:35;8.80;92.20
22173;DHT22;11252;50.596;17.648;2023-03-31T00:31:03;8.80;92.20
22173;DHT22;11252;50.596;17.648;2023-03-31T00:33:30;8.80;92.20
22173;DHT22;11252;50.596;17.648;2023-03-31T00:35:58;8.70;92.20
22173;DHT22;11252;50.596;17.648;2023-03-31T00:38:33;8.70;92.20
22173;DHT22;11252;50.596;17.648;2023-03-31T00:41:02;8.70;92.20
22173;DHT22;11252;50.596;17.648;2023-03-31T00:43:33;8.70;92.20
22173;DHT22;11252;50.596;17.648;2023-03-31T00:46:16;8.60;92.20
22173;DHT22;11252;50.596;17.648;2023-03-31T00:48:52;8.60;92.20
22173;DHT22;11252;50.596;17.648;2023-03-31T00:51:21;8.50;92.20
22173;DHT22;11252;50.596;17.648;2023-03-31T00:53:53;8.60;92.20
22173;DHT22;11252;50.596;17.648;2023-03-31T00:56:25;8.60;92.20
22173;DHT22;11252;50.596;17.648;2023-03-31T00:58:54;8.60;92.20
22173;DHT22;11252;50.596;17.648;2023-03-31T01:01:24;8.70;92.20
22173;DHT22;11252;50.596;17.648;2023-03-31T01:03:52;8.70;92.20
22173;DHT22;11252;50.596;17.648;2023-03-31T01:06:20;8.70;92.20
22173;DHT22;11252;50.596;17.648;2023-03-31T01:08:50;8.70;92.20
22173;DHT22;11252;50.596;17.648;2023-03-31T01:11:23;8.80;92.20
22173;DHT22;11252;50.596;17.648;2023-03-31T01:13:54;8.90;92.20
22173;DHT22;11252;50.596;17.648;2023-03-31T01:16:22;9.00;92.20
22173;DHT22;11252;50.596;17.648;2023-03-31T01:18:50;9.00;92.20
22173;DHT22;11252;50.596;17.648;2023-03-31T01:21:45;9.00;92.20
22173;DHT22;11252;50.596;17.648;2023-03-31T01:35:22;9.00;92.20
22173;DHT22;11252;50.596;17.648;2023-03-31T01:46:57;9.00;92.20
22173;DHT22;11252;50.596;17.648;2023-03-31T01:49:45;9.00;92.20
22173;DHT22;11252;50.596;17.648;2023-03-31T01:52:25;8.90;92.20
22173;DHT22;11252;50.596;17.648;2023-03-31T01:56:01;8.80;92.20
22173;DHT22;11252;50.596;17.648;2023-03-31T01:58:05;8.90;92.20
22173;DHT22;11252;50.596;17.648;2023-03-31T02:00:37;8.90;92.20
22173;DHT22;11252;50.596;17.648;2023-03-31T02:03:13;8.90;92.20
22173;DHT22;11252;50.596;17.648;2023-03-31T02:05:52;8.80;92.20
22173;DHT22;11252;50.596;17.648;2023-03-31T02:08:28;8.80;92.20
22173;DHT22;11252;50.596;17.648;2023-03-31T02:10:58;8.90;92.20
22173;DHT22;11252;50.596;17.648;2023-03-31T02:13:27;8.90;92.20
22173;DHT22;11252;50.596;17.648;2023-03-31T02:15:59;9.00;92.20
22173;DHT22;11252;50.596;17.648;2023-03-31T02:18:30;9.00;92.20
22173;DHT22;11252;50.596;17.648;2023-03-31T02:21:00;9.00;92.20
22173;DHT22;11252;50.596;17.648;2023-03-31T02:23:28;9.00;92.20
22173;DHT22;11252;50.596;17.648;2023-03-31T02:26:17;9.10;92.20
22173;DHT22;11252;50.596;17.648;2023-03-31T02:28:46;8.90;92.20
22173;DHT22;11252;50.596;17.648;2023-03-31T02:34:08;9.00;92.20
22173;DHT22;11252;50.596;17.648;2023-03-31T02:36:36;9.00;92.20
22173;DHT22;11252;50.596;17.648;2023-03-31T02:39:09;9.00;92.20
22173;DHT22;11252;50.596;17.648;2023-03-31T02:41:38;8.90;92.20
22173;DHT22;11252;50.596;17.648;2023-03-31T02:44:06;8.90;92.20
22173;DHT22;11252;50.596;17.648;2023-03-31T02:46:33;8.90;92.20
22173;DHT22;11252;50.596;17.648;2023-03-31T02:49:03;8.90;92.20
22173;DHT22;11252;50.596;17.648;2023-03-31T02:57:18;8.80;92.20
22173;DHT22;11252;50.596;17.648;2023-03-31T03:07:57;8.70;92.20
22173;DHT22;11252;50.596;17.648;2023-03-31T03:10:57;8.80;92.20
22173;DHT22;11252;50.596;17.648;2023-03-31T03:13:34;8.70;92.20
22173;DHT22;11252;50.596;17.648;2023-03-31T03:16:05;8.70;92.20
22173;DHT22;11252;50.596;17.648;2023-03-31T03:18:34;8.80;92.20
22173;DHT22;11252;50.596;17.648;2023-03-31T03:21:02;8.80;92.20
22173;DHT22;11252;50.596;17.648;2023-03-31T03:23:29;8.70;92.20
22173;DHT22;11252;50.596;17.648;2023-03-31T03:25:57;8.70;92.20
22173;DHT22;11252;50.596;17.648;2023-03-31T03:28:24;8.70;92.20
22173;DHT22;11252;50.596;17.648;2023-03-31T03:30:51;8.70;92.20
22173;DHT22;11252;50.596;17.648;2023-03-31T03:33:19;8.50;92.20
22173;DHT22;11252;50.596;17.648;2023-03-31T03:35:50;8.50;92.20
22173;DHT22;11252;50.596;17.648;2023-03-31T03:38:18;8.40;92.20
22173;DHT22;11252;50.596;17.648;2023-03-31T03:40:45;8.30;92.20
22173;DHT22;11252;50.596;17.648;2023-03-31T03:43:15;8.20;92.20
22173;DHT22;11252;50.596;17.648;2023-03-31T03:45:47;8.10;92.20
22173;DHT22;11252;50.596;17.648;2023-03-31T03:48:15;7.90;92.20
22173;DHT22;11252;50.596;17.648;2023-03-31T03:50:43;7.80;92.20
22173;DHT22;11252;50.596;17.648;2023-03-31T03:53:12;7.70;92.20
22173;DHT22;11252;50.596;17.648;2023-03-31T03:55:39;7.60;92.20
22173;DHT22;11252;50.596;17.648;2023-03-31T03:58:07;7.50;92.20
22173;DHT22;11252;50.596;17.648;2023-03-31T04:00:34;7.40;92.20
22173;DHT22;11252;50.596;17.648;2023-03-31T04:03:02;7.30;92.20
22173;DHT22;11252;50.596;17.648;2023-03-31T04:05:30;7.30;92.20
22173;DHT22;11252;50.596;17.648;2023-03-31T04:07:57;7.30;92.20
22173;DHT22;11252;50.596;17.648;2023-03-31T04:10:24;7.30;92.20
22173;DHT22;11252;50.596;17.648;2023-03-31T04:12:51;7.30;92.20
22173;DHT22;11252;50.596;17.648;2023-03-31T04:15:19;7.30;92.20
22173;DHT22;11252;50.596;17.648;2023-03-31T04:17:46;7.30;92.20
22173;DHT22;11252;50.596;17.648;2023-03-31T04:20:17;7.20;92.20
22173;DHT22;11252;50.596;17.648;2023-03-31T04:22:44;7.10;92.20
22173;DHT22;11252;50.596;17.648;2023-03-31T04:25:13;7.00;92.20
22173;DHT22;11252;50.596;17.648;2023-03-31T04:27:45;7.10;92.20
22173;DHT22;11252;50.596;17.648;2023-03-31T04:30:16;7.20;92.20
22173;DHT22;11252;50.596;17.648;2023-03-31T04:32:51;7.20;92.20
22173;DHT22;11252;50.596;17.648;2023-03-31T04:35:22;7.20;92.20
22173;DHT22;11252;50.596;17.648;2023-03-31T04:37:51;7.10;92.20
22173;DHT22;11252;50.596;17.648;2023-03-31T04:40:25;7.10;92.20
22173;DHT22;11252;50.596;17.648;2023-03-31T04:42:52;7.10;92.20
22173;DHT22;11252;50.596;17.648;2023-03-31T04:45:19;7.10;92.20
22173;DHT22;11252;50.596;17.648;2023-03-31T04:47:47;7.10;92.20
22173;DHT22;11252;50.596;17.648;2023-03-31T04:50:14;7.10;92.20
22173;DHT22;11252;50.596;17.648;2023-03-31T04:52:44;7.00;92.20
22173;DHT22;11252;50.596;17.648;2023-03-31T04:55:11;7.00;92.20
22173;DHT22;11252;50.596;17.648;2023-03-31T04:57:41;7.10;92.20
22173;DHT22;11252;50.596;17.648;2023-03-31T05:00:09;7.10;92.20
22173;DHT22;11252;50.596;17.648;2023-03-31T05:02:39;7.10;92.20
22173;DHT22;11252;50.596;17.648;2023-03-31T05:05:07;7.10;92.20
22173;DHT22;11252;50.596;17.648;2023-03-31T05:07:35;7.10;92.20
22173;DHT22;11252;50.596;17.648;2023-03-31T05:10:02;7.10;92.20
22173;DHT22;11252;50.596;17.648;2023-03-31T05:12:36;7.30;92.20
22173;DHT22;11252;50.596;17.648;2023-03-31T05:15:05;7.30;92.20
22173;DHT22;11252;50.596;17.648;2023-03-31T05:17:34;7.30;92.20
22173;DHT22;11252;50.596;17.648;2023-03-31T05:20:01;7.30;92.20
22173;DHT22;11252;50.596;17.648;2023-03-31T05:22:35;7.40;92.20
22173;DHT22;11252;50.596;17.648;2023-03-31T05:25:04;7.50;92.20
22173;DHT22;11252;50.596;17.648;2023-03-31T05:27:34;7.60;92.20
22173;DHT22;11252;50.596;17.648;2023-03-31T05:30:03;7.60;92.20
22173;DHT22;11252;50.596;17.648;2023-03-31T05:32:31;7.70;92.20
22173;DHT22;11252;50.596;17.648;2023-03-31T05:34:58;7.90;92.20
22173;DHT22;11252;50.596;17.648;2023-03-31T05:37:25;8.10;92.20
22173;DHT22;11252;50.596;17.648;2023-03-31T05:39:53;8.20;92.20
22173;DHT22;11252;50.596;17.648;2023-03-31T05:42:20;8.30;92.20
22173;DHT22;11252;50.596;17.648;2023-03-31T05:44:48;8.40;92.20
22173;DHT22;11252;50.596;17.648;2023-03-31T05:47:18;8.60;92.20
22173;DHT22;11252;50.596;17.648;2023-03-31T05:49:45;8.70;92.20
22173;DHT22;11252;50.596;17.648;2023-03-31T05:52:13;8.80;92.20
22173;DHT22;11252;50.596;17.648;2023-03-31T05:54:40;8.90;92.20
22173;DHT22;11252;50.596;17.648;2023-03-31T05:57:09;9.10;92.20
22173;DHT22;11252;50.596;17.648;2023-03-31T05:59:39;9.30;92.20
22173;DHT22;11252;50.596;17.648;2023-03-31T06:02:14;9.30;92.20
22173;DHT22;11252;50.596;17.648;2023-03-31T06:04:41;9.40;92.20
22173;DHT22;11252;50.596;17.648;2023-03-31T06:07:09;9.50;92.20
22173;DHT22;11252;50.596;17.648;2023-03-31T06:09:37;9.60;92.20
22173;DHT22;11252;50.596;17.648;2023-03-31T06:12:04;9.70;92.20
22173;DHT22;11252;50.596;17.648;2023-03-31T06:14:33;9.70;92.20
22173;DHT22;11252;50.596;17.648;2023-03-31T06:17:00;9.80;92.20
22173;DHT22;11252;50.596;17.648;2023-03-31T06:19:27;9.80;92.20
22173;DHT22;11252;50.596;17.648;2023-03-31T06:21:55;9.90;92.20
22173;DHT22;11252;50.596;17.648;2023-03-31T06:24:23;10.00;92.20
22173;DHT22;11252;50.596;17.648;2023-03-31T06:26:50;10.10;92.20
22173;DHT22;11252;50.596;17.648;2023-03-31T06:29:19;10.10;92.20
22173;DHT22;11252;50.596;17.648;2023-03-31T06:31:47;10.20;92.20
22173;DHT22;11252;50.596;17.648;2023-03-31T06:34:14;10.30;92.20
22173;DHT22;11252;50.596;17.648;2023-03-31T06:36:44;10.30;92.20
22173;DHT22;11252;50.596;17.648;2023-03-31T06:39:11;10.30;92.20
22173;DHT22;11252;50.596;17.648;2023-03-31T06:41:39;10.30;92.20
22173;DHT22;11252;50.596;17.648;2023-03-31T06:44:06;10.50;92.20
22173;DHT22;11252;50.596;17.648;2023-03-31T06:46:33;10.50;92.20
22173;DHT22;11252;50.596;17.648;2023-03-31T06:49:01;10.70;92.20
22173;DHT22;11252;50.596;17.648;2023-03-31T06:51:28;10.80;92.20
22173;DHT22;11252;50.596;17.648;2023-03-31T06:53:58;11.00;92.20
22173;DHT22;11252;50.596;17.648;2023-03-31T06:56:25;11.20;92.20
22173;DHT22;11252;50.596;17.648;2023-03-31T06:58:54;11.30;92.20
22173;DHT22;11252;50.596;17.648;2023-03-31T07:01:21;11.40;92.20
22173;DHT22;11252;50.596;17.648;2023-03-31T07:03:49;11.40;92.20
22173;DHT22;11252;50.596;17.648;2023-03-31T07:06:16;11.40;92.20
22173;DHT22;11252;50.596;17.648;2023-03-31T07:08:43;11.40;92.20
22173;DHT22;11252;50.596;17.648;2023-03-31T07:11:11;11.50;92.20
22173;DHT22;11252;50.596;17.648;2023-03-31T07:13:38;11.40;92.20
22173;DHT22;11252;50.596;17.648;2023-03-31T07:16:06;11.40;92.20
22173;DHT22;11252;50.596;17.648;2023-03-31T07:18:34;11.30;92.20
22173;DHT22;11252;50.596;17.648;2023-03-31T07:21:03;11.30;92.20
22173;DHT22;11252;50.596;17.648;2023-03-31T07:23:35;11.20;92.20
22173;DHT22;11252;50.596;17.648;2023-03-31T07:26:04;11.10;92.20
22173;DHT22;11252;50.596;17.648;2023-03-31T07:28:35;11.20;92.20
22173;DHT22;11252;50.596;17.648;2023-03-31T07:31:10;11.30;92.20
22173;DHT22;11252;50.596;17.648;2023-03-31T07:33:37;11.40;92.20
22173;DHT22;11252;50.596;17.648;2023-03-31T07:36:06;11.50;92.20
22173;DHT22;11252;50.596;17.648;2023-03-31T07:38:39;11.70;92.20
22173;DHT22;11252;50.596;17.648;2023-03-31T07:41:10;11.90;92.20
22173;DHT22;11252;50.596;17.648;2023-03-31T07:43:39;11.90;92.20
22173;DHT22;11252;50.596;17.648;2023-03-31T07:46:13;12.00;92.20
22173;DHT22;11252;50.596;17.648;2023-03-31T07:48:40;12.20;92.20
22173;DHT22;11252;50.596;17.648;2023-03-31T07:51:08;12.30;92.20
22173;DHT22;11252;50.596;17.648;2023-03-31T07:53:35;12.50;92.20
22173;DHT22;11252;50.596;17.648;2023-03-31T07:56:03;12.70;92.20
22173;DHT22;11252;50.596;17.648;2023-03-31T07:58:31;12.80;92.20
22173;DHT22;11252;50.596;17.648;2023-03-31T08:00:58;12.90;92.20
22173;DHT22;11252;50.596;17.648;2023-03-31T08:03:25;13.00;92.20
22173;DHT22;11252;50.596;17.648;2023-03-31T08:05:53;12.90;92.20
22173;DHT22;11252;50.596;17.648;2023-03-31T08:08:21;12.90;92.20
22173;DHT22;11252;50.596;17.648;2023-03-31T08:10:49;13.00;92.20
22173;DHT22;11252;50.596;17.648;2023-03-31T08:13:16;13.20;92.20
22173;DHT22;11252;50.596;17.648;2023-03-31T08:15:44;13.40;92.20
22173;DHT22;11252;50.596;17.648;2023-03-31T08:18:11;13.40;92.20
22173;DHT22;11252;50.596;17.648;2023-03-31T08:20:38;13.60;92.20
22173;DHT22;11252;50.596;17.648;2023-03-31T08:23:06;13.80;92.20
22173;DHT22;11252;50.596;17.648;2023-03-31T08:25:35;13.90;92.20
22173;DHT22;11252;50.596;17.648;2023-03-31T08:28:05;13.90;92.20
22173;DHT22;11252;50.596;17.648;2023-03-31T08:30:37;14.00;92.20
22173;DHT22;11252;50.596;17.648;2023-03-31T08:33:05;14.20;92.20
22173;DHT22;11252;50.596;17.648;2023-03-31T08:35:34;14.40;92.20
22173;DHT22;11252;50.596;17.648;2023-03-31T08:38:02;14.70;92.20
22173;DHT22;11252;50.596;17.648;2023-03-31T08:40:30;14.90;91.50
22173;DHT22;11252;50.596;17.648;2023-03-31T08:43:09;15.10;90.80
22173;DHT22;11252;50.596;17.648;2023-03-31T08:45:43;15.00;90.50
22173;DHT22;11252;50.596;17.648;2023-03-31T08:48:35;15.40;89.40
22173;DHT22;11252;50.596;17.648;2023-03-31T08:51:10;15.50;90.00
22173;DHT22;11252;50.596;17.648;2023-03-31T08:53:42;15.50;88.00
22173;DHT22;11252;50.596;17.648;2023-03-31T08:56:16;15.40;88.50
22173;DHT22;11252;50.596;17.648;2023-03-31T08:58:49;15.30;88.70
22173;DHT22;11252;50.596;17.648;2023-03-31T09:01:41;15.30;89.50
22173;DHT22;11252;50.596;17.648;2023-03-31T09:10:05;15.60;89.00
22173;DHT22;11252;50.596;17.648;2023-03-31T09:12:51;15.80;87.80
22173;DHT22;11252;50.596;17.648;2023-03-31T09:15:27;16.10;88.40
22173;DHT22;11252;50.596;17.648;2023-03-31T09:17:58;16.30;86.90
22173;DHT22;11252;50.596;17.648;2023-03-31T09:20:32;16.50;86.20
22173;DHT22;11252;50.596;17.648;2023-03-31T09:23:21;17.00;84.40
22173;DHT22;11252;50.596;17.648;2023-03-31T09:25:50;16.90;83.20
22173;DHT22;11252;50.596;17.648;2023-03-31T09:28:20;16.50;84.00
22173;DHT22;11252;50.596;17.648;2023-03-31T09:30:48;16.20;84.40
22173;DHT22;11252;50.596;17.648;2023-03-31T09:35:50;16.40;85.10
22173;DHT22;11252;50.596;17.648;2023-03-31T09:38:18;17.00;84.70
22173;DHT22;11252;50.596;17.648;2023-03-31T09:40:45;17.30;82.60
22173;DHT22;11252;50.596;17.648;2023-03-31T09:43:25;16.90;82.20
22173;DHT22;11252;50.596;17.648;2023-03-31T09:45:53;16.70;83.90
22173;DHT22;11252;50.596;17.648;2023-03-31T09:48:33;16.60;84.20
22173;DHT22;11252;50.596;17.648;2023-03-31T09:51:05;16.50;83.80
22173;DHT22;11252;50.596;17.648;2023-03-31T09:53:45;16.30;84.30
22173;DHT22;11252;50.596;17.648;2023-03-31T09:56:33;16.20;83.30
22173;DHT22;11252;50.596;17.648;2023-03-31T09:59:03;16.10;84.60
22173;DHT22;11252;50.596;17.648;2023-03-31T10:01:30;16.10;85.20
22173;DHT22;11252;50.596;17.648;2023-03-31T10:03:58;15.90;85.50
22173;DHT22;11252;50.596;17.648;2023-03-31T10:06:26;15.70;86.00
22173;DHT22;11252;50.596;17.648;2023-03-31T10:11:23;15.40;86.20
22173;DHT22;11252;50.596;17.648;2023-03-31T10:14:04;15.30;87.00
22173;DHT22;11252;50.596;17.648;2023-03-31T10:16:53;15.40;87.50
22173;DHT22;11252;50.596;17.648;2023-03-31T10:19:26;15.50;87.20
22173;DHT22;11252;50.596;17.648;2023-03-31T10:22:04;15.40;87.30
22173;DHT22;11252;50.596;17.648;2023-03-31T10:24:40;15.40;87.50
22173;DHT22;11252;50.596;17.648;2023-03-31T10:27:24;15.30;87.30
22173;DHT22;11252;50.596;17.648;2023-03-31T10:29:53;15.20;87.00
22173;DHT22;11252;50.596;17.648;2023-03-31T10:32:25;15.20;87.10
22173;DHT22;11252;50.596;17.648;2023-03-31T10:35:04;15.20;86.90
22173;DHT22;11252;50.596;17.648;2023-03-31T10:37:34;15.20;87.00
22173;DHT22;11252;50.596;17.648;2023-03-31T10:40:29;15.20;87.30
22173;DHT22;11252;50.596;17.648;2023-03-31T10:43:08;15.20;86.80
22173;DHT22;11252;50.596;17.648;2023-03-31T10:45:51;15.30;86.80
22173;DHT22;11252;50.596;17.648;2023-03-31T10:51:05;15.40;87.80
22173;DHT22;11252;50.596;17.648;2023-03-31T10:53:41;15.60;86.90
22173;DHT22;11252;50.596;17.648;2023-03-31T10:57:16;15.70;86.10
22173;DHT22;11252;50.596;17.648;2023-03-31T11:08:13;15.20;87.50
22173;DHT22;11252;50.596;17.648;2023-03-31T11:11:20;15.10;88.00
22173;DHT22;11252;50.596;17.648;2023-03-31T11:28:04;15.00;86.80
22173;DHT22;11252;50.596;17.648;2023-03-31T11:30:41;14.90;87.60
22173;DHT22;11252;50.596;17.648;2023-03-31T11:33:38;14.80;87.70
22173;DHT22;11252;50.596;17.648;2023-03-31T11:36:14;14.90;87.50
22173;DHT22;11252;50.596;17.648;2023-03-31T11:41:42;15.10;87.00
22173;DHT22;11252;50.596;17.648;2023-03-31T11:44:13;15.30;87.90
22173;DHT22;11252;50.596;17.648;2023-03-31T11:47:06;15.60;86.70
22173;DHT22;11252;50.596;17.648;2023-03-31T11:49:40;15.70;85.70
22173;DHT22;11252;50.596;17.648;2023-03-31T11:52:16;15.80;85.30
22173;DHT22;11252;50.596;17.648;2023-03-31T11:54:59;15.70;85.40
22173;DHT22;11252;50.596;17.648;2023-03-31T11:57:33;15.70;85.40
22173;DHT22;11252;50.596;17.648;2023-03-31T12:00:18;15.60;85.50
22173;DHT22;11252;50.596;17.648;2023-03-31T12:05:51;15.50;85.60
22173;DHT22;11252;50.596;17.648;2023-03-31T12:08:34;15.50;83.40
22173;DHT22;11252;50.596;17.648;2023-03-31T12:13:56;15.30;82.60
22173;DHT22;11252;50.596;17.648;2023-03-31T12:19:16;15.20;84.20
22173;DHT22;11252;50.596;17.648;2023-03-31T12:22:05;15.20;84.90
22173;DHT22;11252;50.596;17.648;2023-03-31T12:24:33;15.10;85.50
22173;DHT22;11252;50.596;17.648;2023-03-31T12:27:25;15.10;84.70
22173;DHT22;11252;50.596;17.648;2023-03-31T12:29:57;15.00;85.90
22173;DHT22;11252;50.596;17.648;2023-03-31T12:32:29;15.00;86.30
22173;DHT22;11252;50.596;17.648;2023-03-31T12:35:12;15.00;86.90
22173;DHT22;11252;50.596;17.648;2023-03-31T12:41:18;14.80;86.90
22173;DHT22;11252;50.596;17.648;2023-03-31T12:44:09;14.60;90.00
22173;DHT22;11252;50.596;17.648;2023-03-31T12:57:23;13.90;92.20
22173;DHT22;11252;50.596;17.648;2023-03-31T13:00:23;13.70;92.20
22173;DHT22;11252;50.596;17.648;2023-03-31T13:05:57;13.60;92.20
22173;DHT22;11252;50.596;17.648;2023-03-31T13:08:53;13.50;92.20
22173;DHT22;11252;50.596;17.648;2023-03-31T13:14:24;13.50;92.20
22173;DHT22;11252;50.596;17.648;2023-03-31T13:19:40;13.50;92.20
22173;DHT22;11252;50.596;17.648;2023-03-31T13:22:30;13.50;92.20
22173;DHT22;11252;50.596;17.648;2023-03-31T13:27:54;13.40;92.20
22173;DHT22;11252;50.596;17.648;2023-03-31T13:35:39;13.30;92.20
22173;DHT22;11252;50.596;17.648;2023-03-31T13:38:18;13.20;92.20
22173;DHT22;11252;50.596;17.648;2023-03-31T13:41:23;13.10;92.20
22173;DHT22;11252;50.596;17.648;2023-03-31T13:50:41;13.10;92.20
22173;DHT22;11252;50.596;17.648;2023-03-31T13:55:43;13.00;92.20
22173;DHT22;11252;50.596;17.648;2023-03-31T14:01:34;12.80;92.20
22173;DHT22;11252;50.596;17.648;2023-03-31T14:07:47;12.80;92.20
22173;DHT22;11252;50.596;17.648;2023-03-31T14:09:55;12.80;92.20
22173;DHT22;11252;50.596;17.648;2023-03-31T14:15:00;12.70;92.20
22173;DHT22;11252;50.596;17.648;2023-03-31T14:17:32;12.70;92.20
22173;DHT22;11252;50.596;17.648;2023-03-31T14:25:57;12.80;92.20
22173;DHT22;11252;50.596;17.648;2023-03-31T14:32:21;12.80;92.20
22173;DHT22;11252;50.596;17.648;2023-03-31T14:37:04;12.90;92.20
22173;DHT22;11252;50.596;17.648;2023-03-31T14:39:37;12.90;92.20
22173;DHT22;11252;50.596;17.648;2023-03-31T14:42:34;12.90;92.20
22173;DHT22;11252;50.596;17.648;2023-03-31T14:45:06;12.90;92.20
22173;DHT22;11252;50.596;17.648;2023-03-31T14:47:41;13.00;92.20
22173;DHT22;11252;50.596;17.648;2023-03-31T14:50:15;12.90;92.20
22173;DHT22;11252;50.596;17.648;2023-03-31T14:52:50;13.00;92.20
22173;DHT22;11252;50.596;17.648;2023-03-31T14:55:22;12.90;92.20
22173;DHT22;11252;50.596;17.648;2023-03-31T14:58:01;12.90;92.20
22173;DHT22;11252;50.596;17.648;2023-03-31T15:00:33;12.70;92.20
22173;DHT22;11252;50.596;17.648;2023-03-31T15:03:02;12.60;92.20
22173;DHT22;11252;50.596;17.648;2023-03-31T15:05:34;12.50;92.20
22173;DHT22;11252;50.596;17.648;2023-03-31T15:08:09;12.50;92.20
22173;DHT22;11252;50.596;17.648;2023-03-31T15:10:41;12.60;92.20
22173;DHT22;11252;50.596;17.648;2023-03-31T15:13:16;12.60;92.20
22173;DHT22;11252;50.596;17.648;2023-03-31T15:15:45;12.60;92.20
22173;DHT22;11252;50.596;17.648;2023-03-31T15:18:14;12.60;92.20
22173;DHT22;11252;50.596;17.648;2023-03-31T15:20:43;12.70;92.20
22173;DHT22;11252;50.596;17.648;2023-03-31T15:23:27;12.80;92.20
22173;DHT22;11252;50.596;17.648;2023-03-31T15:26:14;12.80;92.20
22173;DHT22;11252;50.596;17.648;2023-03-31T15:29:04;12.80;92.20
22173;DHT22;11252;50.596;17.648;2023-03-31T15:31:34;12.70;92.20
22173;DHT22;11252;50.596;17.648;2023-03-31T15:34:30;12.70;92.20
22173;DHT22;11252;50.596;17.648;2023-03-31T15:37:03;12.70;92.20
22173;DHT22;11252;50.596;17.648;2023-03-31T15:39:35;12.70;92.20
22173;DHT22;11252;50.596;17.648;2023-03-31T15:42:05;12.70;92.20
22173;DHT22;11252;50.596;17.648;2023-03-31T15:47:17;12.60;92.20
22173;DHT22;11252;50.596;17.648;2023-03-31T15:50:07;12.60;92.20
22173;DHT22;11252;50.596;17.648;2023-03-31T15:52:46;12.50;92.20
22173;DHT22;11252;50.596;17.648;2023-03-31T15:55:31;12.50;92.20
22173;DHT22;11252;50.596;17.648;2023-03-31T15:58:06;12.60;92.20
22173;DHT22;11252;50.596;17.648;2023-03-31T16:00:46;12.90;92.20
22173;DHT22;11252;50.596;17.648;2023-03-31T16:03:22;12.90;92.20
22173;DHT22;11252;50.596;17.648;2023-03-31T16:05:55;12.80;92.20
22173;DHT22;11252;50.596;17.648;2023-03-31T16:08:50;12.80;92.20
22173;DHT22;11252;50.596;17.648;2023-03-31T16:11:20;12.80;92.20
22173;DHT22;11252;50.596;17.648;2023-03-31T16:13:51;12.80;92.20
22173;DHT22;11252;50.596;17.648;2023-03-31T16:16:22;12.80;92.20
22173;DHT22;11252;50.596;17.648;2023-03-31T16:18:52;12.80;92.20
22173;DHT22;11252;50.596;17.648;2023-03-31T16:21:24;12.80;92.20
22173;DHT22;11252;50.596;17.648;2023-03-31T16:23:54;12.70;92.20
22173;DHT22;11252;50.596;17.648;2023-03-31T16:26:24;12.70;92.20
22173;DHT22;11252;50.596;17.648;2023-03-31T16:28:54;12.80;92.20
22173;DHT22;11252;50.596;17.648;2023-03-31T16:31:33;12.90;92.20
22173;DHT22;11252;50.596;17.648;2023-03-31T16:34:02;12.90;92.20
22173;DHT22;11252;50.596;17.648;2023-03-31T16:36:30;12.90;92.20
22173;DHT22;11252;50.596;17.648;2023-03-31T16:38:57;12.90;92.20
22173;DHT22;11252;50.596;17.648;2023-03-31T16:41:28;12.80;92.20
22173;DHT22;11252;50.596;17.648;2023-03-31T16:43:56;12.80;92.20
22173;DHT22;11252;50.596;17.648;2023-03-31T16:46:23;12.70;92.20
22173;DHT22;11252;50.596;17.648;2023-03-31T16:48:51;12.70;92.20
22173;DHT22;11252;50.596;17.648;2023-03-31T16:51:19;12.60;92.20
22173;DHT22;11252;50.596;17.648;2023-03-31T16:53:47;12.50;92.20
22173;DHT22;11252;50.596;17.648;2023-03-31T16:56:15;12.50;92.20
22173;DHT22;11252;50.596;17.648;2023-03-31T16:58:43;12.40;92.20
22173;DHT22;11252;50.596;17.648;2023-03-31T17:01:11;12.30;92.20
22173;DHT22;11252;50.596;17.648;2023-03-31T17:03:39;12.20;92.20
22173;DHT22;11252;50.596;17.648;2023-03-31T17:06:12;12.10;92.20
22173;DHT22;11252;50.596;17.648;2023-03-31T17:08:40;12.10;92.20
22173;DHT22;11252;50.596;17.648;2023-03-31T17:11:10;12.00;92.20
22173;DHT22;11252;50.596;17.648;2023-03-31T17:13:39;11.90;92.20
22173;DHT22;11252;50.596;17.648;2023-03-31T17:16:08;11.80;92.20
22173;DHT22;11252;50.596;17.648;2023-03-31T17:18:49;11.70;92.20
22173;DHT22;11252;50.596;17.648;2023-03-31T17:21:18;11.70;92.20
22173;DHT22;11252;50.596;17.648;2023-03-31T17:23:45;11.60;92.20
22173;DHT22;11252;50.596;17.648;2023-03-31T17:26:14;11.50;92.20
22173;DHT22;11252;50.596;17.648;2023-03-31T17:28:42;11.40;92.20
22173;DHT22;11252;50.596;17.648;2023-03-31T17:31:15;11.30;92.20
22173;DHT22;11252;50.596;17.648;2023-03-31T17:33:46;11.30;92.20
22173;DHT22;11252;50.596;17.648;2023-03-31T17:36:13;11.20;92.20
22173;DHT22;11252;50.596;17.648;2023-03-31T17:38:41;11.10;92.20
22173;DHT22;11252;50.596;17.648;2023-03-31T17:41:11;11.10;92.20
22173;DHT22;11252;50.596;17.648;2023-03-31T17:43:39;11.00;92.20
22173;DHT22;11252;50.596;17.648;2023-03-31T17:46:10;10.90;92.20
22173;DHT22;11252;50.596;17.648;2023-03-31T17:48:39;10.80;92.20
22173;DHT22;11252;50.596;17.648;2023-03-31T17:51:09;10.70;92.20
22173;DHT22;11252;50.596;17.648;2023-03-31T17:53:41;10.70;92.20
22173;DHT22;11252;50.596;17.648;2023-03-31T17:56:08;10.60;92.20
22173;DHT22;11252;50.596;17.648;2023-03-31T17:58:36;10.60;92.20
22173;DHT22;11252;50.596;17.648;2023-03-31T18:01:05;10.50;92.20
22173;DHT22;11252;50.596;17.648;2023-03-31T18:03:34;10.50;92.20
22173;DHT22;11252;50.596;17.648;2023-03-31T18:06:08;10.50;92.20
22173;DHT22;11252;50.596;17.648;2023-03-31T18:08:38;10.40;92.20
22173;DHT22;11252;50.596;17.648;2023-03-31T18:11:06;10.30;92.20
22173;DHT22;11252;50.596;17.648;2023-03-31T18:13:35;10.30;92.20
22173;DHT22;11252;50.596;17.648;2023-03-31T18:16:04;10.20;92.20
22173;DHT22;11252;50.596;17.648;2023-03-31T18:18:32;10.00;92.20
22173;DHT22;11252;50.596;17.648;2023-03-31T18:21:04;10.00;92.20
22173;DHT22;11252;50.596;17.648;2023-03-31T18:23:33;9.90;92.20